createdAt,value
2017-08-08T00:00:17.657Z,1013.55
2017-08-08T00:01:26.618Z,1013.55
2017-08-08T00:02:36.386Z,1013.57
2017-08-08T00:03:46.730Z,1013.56
2017-08-08T00:04:55.730Z,1013.54
2017-08-08T00:06:04.681Z,1013.55
2017-08-08T00:07:14.039Z,1013.51
2017-08-08T00:08:23.527Z,1013.45
2017-08-08T00:09:32.491Z,1013.47
2017-08-08T00:10:42.075Z,1013.41
2017-08-08T00:11:51.110Z,1013.43
2017-08-08T00:13:00.112Z,1013.45
2017-08-08T00:14:09.432Z,1013.42
2017-08-08T00:15:18.390Z,1013.4
2017-08-08T00:16:27.568Z,1013.38
2017-08-08T00:17:36.628Z,1013.37
2017-08-08T00:18:45.666Z,1013.34
2017-08-08T00:19:54.663Z,1013.3
2017-08-08T00:21:03.944Z,1013.27
2017-08-08T00:22:13.308Z,1013.25
2017-08-08T00:23:22.268Z,1013.25
2017-08-08T00:24:31.299Z,1013.25
2017-08-08T00:25:40.567Z,1013.28
2017-08-08T00:26:49.662Z,1013.28
2017-08-08T00:27:58.736Z,1013.31
2017-08-08T00:29:08.001Z,1013.34
2017-08-08T00:30:17.157Z,1013.32
2017-08-08T00:31:26.165Z,1013.33
2017-08-08T00:32:35.328Z,1013.29
2017-08-08T00:33:44.286Z,1013.28
2017-08-08T00:34:53.678Z,1013.23
2017-08-08T00:36:03.063Z,1013.2
2017-08-08T00:37:12.028Z,1013.19
2017-08-08T00:38:21.059Z,1013.21
2017-08-08T00:39:30.111Z,1013.15
2017-08-08T00:40:39.142Z,1013.14
2017-08-08T00:41:48.277Z,1013.13
2017-08-08T00:42:57.382Z,1013.14
2017-08-08T00:44:06.407Z,1013.11
2017-08-08T00:45:15.553Z,1013.12
2017-08-08T00:46:24.647Z,1013.13
2017-08-08T00:47:33.690Z,1013.1
2017-08-08T00:48:42.749Z,1013.12
2017-08-08T00:49:51.797Z,1013.09
2017-08-08T00:51:01.178Z,1013.08
2017-08-08T00:52:10.163Z,1013.07
2017-08-08T00:53:19.263Z,1013.06
2017-08-08T00:54:28.314Z,1013.05
2017-08-08T00:55:37.594Z,1013.02
2017-08-08T00:56:46.561Z,1013.07
2017-08-08T00:57:55.523Z,1012.99
2017-08-08T00:59:04.479Z,1012.95
2017-08-08T01:00:13.435Z,1012.9
2017-08-08T01:01:22.389Z,1012.9
2017-08-08T01:02:31.350Z,1012.86
2017-08-08T01:03:40.310Z,1012.88
2017-08-08T01:04:49.270Z,1012.86
2017-08-08T01:05:58.233Z,1012.88
2017-08-08T01:07:07.194Z,1012.87
2017-08-08T01:08:16.151Z,1012.86
2017-08-08T01:09:25.105Z,1012.87
2017-08-08T01:10:34.058Z,1012.85
2017-08-08T01:11:43.011Z,1012.88
2017-08-08T01:12:51.968Z,1012.88
2017-08-08T01:14:00.937Z,1012.86
2017-08-08T01:15:09.900Z,1012.78
2017-08-08T01:16:18.853Z,1012.82
2017-08-08T01:17:27.826Z,1012.78
2017-08-08T01:18:36.783Z,1012.78
2017-08-08T01:19:45.739Z,1012.78
2017-08-08T01:20:54.702Z,1012.76
2017-08-08T01:22:03.664Z,1012.78
2017-08-08T01:23:12.630Z,1012.75
2017-08-08T01:24:21.599Z,1012.75
2017-08-08T01:25:30.555Z,1012.76
2017-08-08T01:26:39.514Z,1012.8
2017-08-08T01:27:48.474Z,1012.77
2017-08-08T01:28:57.431Z,1012.79
2017-08-08T01:30:06.391Z,1012.79
2017-08-08T01:31:15.351Z,1012.79
2017-08-08T01:32:24.313Z,1012.84
2017-08-08T01:33:33.270Z,1012.83
2017-08-08T01:34:42.227Z,1012.82
2017-08-08T01:35:51.191Z,1012.8
2017-08-08T01:37:00.144Z,1012.82
2017-08-08T01:38:09.109Z,1012.8
2017-08-08T01:39:18.408Z,1012.81
2017-08-08T01:40:27.375Z,1012.8
2017-08-08T01:41:36.339Z,1012.76
2017-08-08T01:42:45.298Z,1012.77
2017-08-08T01:43:54.253Z,1012.75
2017-08-08T01:45:03.221Z,1012.77
2017-08-08T01:46:12.194Z,1012.78
2017-08-08T01:47:21.146Z,1012.75
2017-08-08T01:48:30.105Z,1012.75
2017-08-08T01:49:39.060Z,1012.74
2017-08-08T01:50:48.022Z,1012.74
2017-08-08T01:51:57.000Z,1012.73
2017-08-08T01:53:05.968Z,1012.7
2017-08-08T01:54:14.925Z,1012.7
2017-08-08T01:55:23.877Z,1012.72
2017-08-08T01:56:33.161Z,1012.73
2017-08-08T01:57:42.141Z,1012.71
2017-08-08T01:58:51.108Z,1012.72
2017-08-08T02:00:00.060Z,1012.67
2017-08-08T02:01:09.036Z,1012.68
2017-08-08T02:02:17.989Z,1012.68
2017-08-08T02:03:27.283Z,1012.68
2017-08-08T02:04:36.240Z,1012.68
2017-08-08T02:05:45.214Z,1012.71
2017-08-08T02:06:54.182Z,1012.73
2017-08-08T02:08:03.147Z,1012.76
2017-08-08T02:09:12.107Z,1012.75
2017-08-08T02:10:21.079Z,1012.75
2017-08-08T02:11:30.045Z,1012.74
2017-08-08T02:12:39.004Z,1012.75
2017-08-08T02:13:47.967Z,1012.75
2017-08-08T02:14:56.932Z,1012.74
2017-08-08T02:16:06.243Z,1012.72
2017-08-08T02:17:15.198Z,1012.72
2017-08-08T02:18:24.159Z,1012.71
2017-08-08T02:19:33.258Z,1012.74
2017-08-08T02:20:42.224Z,1012.72
2017-08-08T02:21:51.177Z,1012.68
2017-08-08T02:23:00.125Z,1012.66
2017-08-08T02:24:09.090Z,1012.65
2017-08-08T02:25:18.050Z,1012.64
2017-08-08T02:26:27.026Z,1012.63
2017-08-08T02:27:36.303Z,1012.63
2017-08-08T02:28:45.260Z,1012.61
2017-08-08T02:29:54.214Z,1012.59
2017-08-08T02:31:03.174Z,1012.6
2017-08-08T02:32:12.137Z,1012.63
2017-08-08T02:33:21.100Z,1012.64
2017-08-08T02:34:30.065Z,1012.6
2017-08-08T02:35:39.027Z,1012.63
2017-08-08T02:36:47.984Z,1012.57
2017-08-08T02:37:56.932Z,1012.58
2017-08-08T02:39:05.892Z,1012.58
2017-08-08T02:40:14.853Z,1012.61
2017-08-08T02:41:23.825Z,1012.59
2017-08-08T02:42:32.792Z,1012.57
2017-08-08T02:43:41.763Z,1012.56
2017-08-08T02:44:50.719Z,1012.56
2017-08-08T02:46:00.004Z,1012.55
2017-08-08T02:47:08.983Z,1012.52
2017-08-08T02:48:17.944Z,1012.53
2017-08-08T02:49:26.917Z,1012.51
2017-08-08T02:50:35.881Z,1012.45
2017-08-08T02:51:44.855Z,1012.48
2017-08-08T02:52:53.816Z,1012.51
2017-08-08T02:54:02.770Z,1012.49
2017-08-08T02:55:12.050Z,1012.47
2017-08-08T02:56:21.008Z,1012.44
2017-08-08T02:57:29.969Z,1012.44
2017-08-08T02:58:38.924Z,1012.42
2017-08-08T02:59:47.879Z,1012.42
2017-08-08T03:00:56.833Z,1012.42
2017-08-08T03:02:05.797Z,1012.43
2017-08-08T03:03:14.768Z,1012.36
2017-08-08T03:04:23.749Z,1012.36
2017-08-08T03:05:32.725Z,1012.36
2017-08-08T03:06:42.000Z,1012.38
2017-08-08T03:07:50.961Z,1012.35
2017-08-08T03:08:59.913Z,1012.4
2017-08-08T03:10:08.869Z,1012.32
2017-08-08T03:11:17.821Z,1012.37
2017-08-08T03:12:26.782Z,1012.34
2017-08-08T03:13:35.758Z,1012.38
2017-08-08T03:14:44.723Z,1012.4
2017-08-08T03:15:53.991Z,1012.36
2017-08-08T03:17:02.955Z,1012.38
2017-08-08T03:18:11.914Z,1012.36
2017-08-08T03:19:20.871Z,1012.35
2017-08-08T03:20:29.829Z,1012.33
2017-08-08T03:21:38.812Z,1012.33
2017-08-08T03:22:47.776Z,1012.3
2017-08-08T03:23:56.732Z,1012.34
2017-08-08T03:25:05.690Z,1012.32
2017-08-08T03:26:14.654Z,1012.38
2017-08-08T03:27:23.623Z,1012.33
2017-08-08T03:28:32.580Z,1012.32
2017-08-08T03:29:41.535Z,1012.27
2017-08-08T03:30:50.501Z,1012.26
2017-08-08T03:31:59.467Z,1012.24
2017-08-08T03:33:08.422Z,1012.27
2017-08-08T03:34:17.705Z,1012.29
2017-08-08T03:35:26.660Z,1012.32
2017-08-08T03:36:35.633Z,1012.28
2017-08-08T03:37:44.594Z,1012.31
2017-08-08T03:38:53.550Z,1012.29
2017-08-08T03:40:02.542Z,1012.3
2017-08-08T03:41:11.497Z,1012.29
2017-08-08T03:42:20.454Z,1012.3
2017-08-08T03:43:29.419Z,1012.31
2017-08-08T03:44:38.385Z,1012.28
2017-08-08T03:45:47.331Z,1012.28
2017-08-08T03:46:56.285Z,1012.27
2017-08-08T03:48:05.244Z,1012.27
2017-08-08T03:49:14.208Z,1012.22
2017-08-08T03:50:23.486Z,1012.22
2017-08-08T03:51:32.458Z,1012.18
2017-08-08T03:52:41.417Z,1012.19
2017-08-08T03:53:50.374Z,1012.16
2017-08-08T03:54:59.328Z,1012.18
2017-08-08T03:56:08.304Z,1012.15
2017-08-08T03:57:17.589Z,1012.12
2017-08-08T03:58:26.550Z,1012.15
2017-08-08T03:59:35.835Z,1012.11
2017-08-08T04:00:44.802Z,1012.11
2017-08-08T04:01:53.761Z,1012.19
2017-08-08T04:03:02.711Z,1012.16
2017-08-08T04:04:11.666Z,1012.17
2017-08-08T04:05:20.618Z,1012.13
2017-08-08T04:06:29.585Z,1012.12
2017-08-08T04:07:38.542Z,1012.14
2017-08-08T04:08:47.499Z,1012.16
2017-08-08T04:09:56.462Z,1012.18
2017-08-08T04:11:05.425Z,1012.2
2017-08-08T04:12:14.387Z,1012.23
2017-08-08T04:13:23.342Z,1012.25
2017-08-08T04:14:32.308Z,1012.23
2017-08-08T04:15:41.261Z,1012.24
2017-08-08T04:16:50.221Z,1012.23
2017-08-08T04:17:59.507Z,1012.22
2017-08-08T04:19:08.468Z,1012.22
2017-08-08T04:20:17.757Z,1012.21
2017-08-08T04:21:26.719Z,1012.23
2017-08-08T04:22:35.677Z,1012.23
2017-08-08T04:23:44.631Z,1012.22
2017-08-08T04:24:53.596Z,1012.25
2017-08-08T04:26:02.557Z,1012.23
2017-08-08T04:27:11.512Z,1012.23
2017-08-08T04:28:20.478Z,1012.26
2017-08-08T04:29:29.458Z,1012.28
2017-08-08T04:30:38.423Z,1012.27
2017-08-08T04:31:47.381Z,1012.31
2017-08-08T04:32:56.349Z,1012.32
2017-08-08T04:34:05.301Z,1012.33
2017-08-08T04:35:14.253Z,1012.3
2017-08-08T04:36:23.209Z,1012.31
2017-08-08T04:37:32.175Z,1012.28
2017-08-08T04:38:41.122Z,1012.29
2017-08-08T04:39:50.081Z,1012.3
2017-08-08T04:40:59.036Z,1012.27
2017-08-08T04:42:07.995Z,1012.3
2017-08-08T04:43:16.943Z,1012.26
2017-08-08T04:44:25.899Z,1012.26
2017-08-08T04:45:34.863Z,1012.34
2017-08-08T04:46:43.814Z,1012.27
2017-08-08T04:47:52.771Z,1012.25
2017-08-08T04:49:01.730Z,1012.23
2017-08-08T04:50:11.019Z,1012.19
2017-08-08T04:51:19.973Z,1012.17
2017-08-08T04:52:28.925Z,1012.18
2017-08-08T04:53:37.887Z,1012.2
2017-08-08T04:54:46.843Z,1012.23
2017-08-08T04:55:56.134Z,1012.21
2017-08-08T04:57:05.094Z,1012.19
2017-08-08T04:58:14.050Z,1012.18
2017-08-08T04:59:23.004Z,1012.14
2017-08-08T05:00:31.952Z,1012.16
2017-08-08T05:01:40.912Z,1012.11
2017-08-08T05:02:49.871Z,1012.08
2017-08-08T05:03:58.828Z,1012.08
2017-08-08T05:05:07.783Z,1012.06
2017-08-08T05:06:16.733Z,1012.05
2017-08-08T05:07:25.688Z,1012.06
2017-08-08T05:08:34.648Z,1012.05
2017-08-08T05:09:43.600Z,1012.02
2017-08-08T05:10:52.562Z,1012.06
2017-08-08T05:12:01.520Z,1012.05
2017-08-08T05:13:10.479Z,1012.11
2017-08-08T05:14:19.433Z,1012.08
2017-08-08T05:15:28.397Z,1012.13
2017-08-08T05:16:37.366Z,1012.13
2017-08-08T05:17:46.359Z,1012.17
2017-08-08T05:18:55.317Z,1012.13
2017-08-08T05:20:04.292Z,1012.15
2017-08-08T05:21:13.252Z,1012.12
2017-08-08T05:22:22.207Z,1012.11
2017-08-08T05:23:31.162Z,1012.09
2017-08-08T05:24:40.447Z,1012.08
2017-08-08T05:25:49.403Z,1012.1
2017-08-08T05:26:58.365Z,1012.06
2017-08-08T05:28:07.323Z,1012.05
2017-08-08T05:29:16.284Z,1012.01
2017-08-08T05:30:25.251Z,1012.03
2017-08-08T05:31:34.210Z,1012.01
2017-08-08T05:32:43.496Z,1012.05
2017-08-08T05:33:52.460Z,1012.04
2017-08-08T05:35:01.414Z,1011.99
2017-08-08T05:36:10.699Z,1012.04
2017-08-08T05:37:19.987Z,1012.03
2017-08-08T05:38:28.953Z,1011.97
2017-08-08T05:39:38.226Z,1012.01
2017-08-08T05:40:47.178Z,1011.99
2017-08-08T05:41:56.141Z,1011.94
2017-08-08T05:43:05.100Z,1011.89
2017-08-08T05:44:14.058Z,1011.88
2017-08-08T05:45:23.020Z,1011.85
2017-08-08T05:46:32.001Z,1011.88
2017-08-08T05:47:40.968Z,1011.94
2017-08-08T05:48:49.931Z,1011.91
2017-08-08T05:49:58.885Z,1011.99
2017-08-08T05:51:07.837Z,1011.98
2017-08-08T05:52:16.797Z,1011.98
2017-08-08T05:53:25.752Z,1011.91
2017-08-08T05:54:34.707Z,1011.92
2017-08-08T05:55:43.660Z,1011.82
2017-08-08T05:56:52.622Z,1011.82
2017-08-08T05:58:01.579Z,1011.81
2017-08-08T05:59:10.533Z,1011.83
2017-08-08T06:00:19.492Z,1011.82
2017-08-08T06:01:28.453Z,1011.87
2017-08-08T06:02:37.412Z,1011.9
2017-08-08T06:03:46.377Z,1011.89
2017-08-08T06:04:55.332Z,1011.89
2017-08-08T06:06:04.285Z,1011.91
2017-08-08T06:07:13.265Z,1011.92
2017-08-08T06:08:22.231Z,1011.89
2017-08-08T06:09:31.198Z,1011.85
2017-08-08T06:10:40.152Z,1011.83
2017-08-08T06:11:49.108Z,1011.84
2017-08-08T06:12:58.058Z,1011.77
2017-08-08T06:14:07.024Z,1011.73
2017-08-08T06:15:16.323Z,1011.8
2017-08-08T06:16:25.285Z,1011.81
2017-08-08T06:17:34.243Z,1011.86
2017-08-08T06:18:43.427Z,1011.79
2017-08-08T06:19:52.382Z,1011.73
2017-08-08T06:21:01.612Z,1011.79
2017-08-08T06:22:10.825Z,1011.76
2017-08-08T06:23:19.888Z,1011.72
2017-08-08T06:24:28.844Z,1011.69
2017-08-08T06:25:37.801Z,1011.66
2017-08-08T06:26:46.791Z,1011.65
2017-08-08T06:27:55.753Z,1011.7
2017-08-08T06:29:05.379Z,1011.65
2017-08-08T06:30:14.375Z,1011.67
2017-08-08T06:31:23.662Z,1011.66
2017-08-08T06:32:32.625Z,1011.69
2017-08-08T06:33:41.581Z,1011.7
2017-08-08T06:34:50.540Z,1011.73
2017-08-08T06:35:59.502Z,1011.66
2017-08-08T06:37:08.541Z,1011.65
2017-08-08T06:38:17.900Z,1011.78
2017-08-08T06:39:26.864Z,1011.65
2017-08-08T06:40:36.380Z,1011.71
2017-08-08T06:41:45.531Z,1011.75
2017-08-08T06:42:54.516Z,1011.73
2017-08-08T06:44:03.479Z,1011.72
2017-08-08T06:45:12.636Z,1011.78
2017-08-08T06:46:22.061Z,1011.75
2017-08-08T06:47:31.021Z,1011.75
2017-08-08T06:48:40.178Z,1011.77
2017-08-08T06:49:49.328Z,1011.78
2017-08-08T06:50:58.427Z,1011.71
2017-08-08T06:52:07.380Z,1011.68
2017-08-08T06:53:16.434Z,1011.64
2017-08-08T06:54:25.842Z,1011.66
2017-08-08T06:55:35.053Z,1011.62
2017-08-08T06:56:44.468Z,1011.65
2017-08-08T06:57:53.419Z,1011.63
2017-08-08T06:59:02.536Z,1011.64
2017-08-08T07:00:11.495Z,1011.64
2017-08-08T07:01:20.460Z,1011.63
2017-08-08T07:02:29.425Z,1011.61
2017-08-08T07:03:38.589Z,1011.55
2017-08-08T07:04:47.778Z,1011.41
2017-08-08T07:05:56.796Z,1011.38
2017-08-08T07:07:05.974Z,1011.39
2017-08-08T07:08:15.163Z,1011.3
2017-08-08T07:09:24.171Z,1011.23
2017-08-08T07:10:33.121Z,1011.21
2017-08-08T07:11:42.225Z,1011.2
2017-08-08T07:12:51.252Z,1011.2
2017-08-08T07:14:00.347Z,1011.23
2017-08-08T07:15:09.398Z,1011.24
2017-08-08T07:16:18.350Z,1011.24
2017-08-08T07:17:27.493Z,1011.26
2017-08-08T07:18:36.455Z,1011.26
2017-08-08T07:19:45.645Z,1011.26
2017-08-08T07:20:54.846Z,1011.21
2017-08-08T07:22:03.895Z,1011.23
2017-08-08T07:23:12.855Z,1011.2
2017-08-08T07:24:21.949Z,1011.27
2017-08-08T07:25:30.914Z,1011.19
2017-08-08T07:26:39.920Z,1011.19
2017-08-08T07:27:48.898Z,1011.16
2017-08-08T07:28:57.863Z,1011.2
2017-08-08T07:30:06.903Z,1011.12
2017-08-08T07:31:16.183Z,1011.03
2017-08-08T07:32:25.533Z,1011.02
2017-08-08T07:33:34.694Z,1010.99
2017-08-08T07:34:43.663Z,1011.03
2017-08-08T07:35:52.650Z,1011.08
2017-08-08T07:37:02.071Z,1011.02
2017-08-08T07:38:11.028Z,1011.03
2017-08-08T07:39:20.086Z,1011.15
2017-08-08T07:40:29.135Z,1011.06
2017-08-08T07:41:38.515Z,1011.09
2017-08-08T07:42:47.823Z,1011.18
2017-08-08T07:43:56.889Z,1011.26
2017-08-08T07:45:06.166Z,1011.24
2017-08-08T07:46:15.184Z,1011.23
2017-08-08T07:47:24.158Z,1011.29
2017-08-08T07:48:33.118Z,1011.26
2017-08-08T07:49:42.122Z,1011.18
2017-08-08T07:50:51.162Z,1011.15
2017-08-08T07:52:00.126Z,1011.15
2017-08-08T07:53:09.094Z,1011.11
2017-08-08T07:54:18.055Z,1011.1
2017-08-08T07:55:27.139Z,1011.05
2017-08-08T07:56:36.188Z,1011.08
2017-08-08T07:57:45.303Z,1011.12
2017-08-08T07:58:54.375Z,1011.14
2017-08-08T08:00:03.335Z,1011.14
2017-08-08T08:01:12.293Z,1011.09
2017-08-08T08:02:21.488Z,1011.05
2017-08-08T08:03:30.559Z,1011
2017-08-08T08:04:39.647Z,1011.08
2017-08-08T08:05:48.690Z,1010.99
2017-08-08T08:06:57.842Z,1011.01
2017-08-08T08:08:06.872Z,1011.01
2017-08-08T08:09:15.991Z,1011
2017-08-08T08:10:24.980Z,1010.98
2017-08-08T08:11:34.030Z,1010.98
2017-08-08T08:12:43.106Z,1010.93
2017-08-08T08:13:52.206Z,1010.91
2017-08-08T08:15:01.263Z,1010.92
2017-08-08T08:16:10.284Z,1010.86
2017-08-08T08:17:19.276Z,1010.89
2017-08-08T08:18:28.277Z,1010.86
2017-08-08T08:19:37.283Z,1010.84
2017-08-08T08:20:46.262Z,1010.86
2017-08-08T08:21:55.294Z,1010.8
2017-08-08T08:23:04.311Z,1010.74
2017-08-08T08:24:13.352Z,1010.78
2017-08-08T08:25:22.333Z,1010.73
2017-08-08T08:26:31.426Z,1010.79
2017-08-08T08:27:40.473Z,1010.71
2017-08-08T08:28:49.554Z,1010.75
2017-08-08T08:29:58.583Z,1010.72
2017-08-08T08:31:07.961Z,1010.69
2017-08-08T08:32:17.138Z,1010.7
2017-08-08T08:33:26.511Z,1010.65
2017-08-08T08:34:35.557Z,1010.61
2017-08-08T08:35:44.666Z,1010.59
2017-08-08T08:36:53.672Z,1010.57
2017-08-08T08:38:02.895Z,1010.6
2017-08-08T08:39:11.911Z,1010.54
2017-08-08T08:40:20.956Z,1010.51
2017-08-08T08:41:30.047Z,1010.56
2017-08-08T08:42:39.085Z,1010.53
2017-08-08T08:43:48.117Z,1010.49
2017-08-08T08:44:57.442Z,1010.46
2017-08-08T08:46:06.450Z,1010.48
2017-08-08T08:47:15.459Z,1010.48
2017-08-08T08:48:24.548Z,1010.51
2017-08-08T08:49:33.619Z,1010.48
2017-08-08T08:50:42.959Z,1010.47
2017-08-08T08:51:52.055Z,1010.44
2017-08-08T08:53:01.049Z,1010.33
2017-08-08T08:54:10.146Z,1010.31
2017-08-08T08:55:19.452Z,1010.22
2017-08-08T08:56:28.635Z,1010.13
2017-08-08T08:57:37.672Z,1010.08
2017-08-08T08:58:46.729Z,1010.01
2017-08-08T08:59:55.789Z,1009.98
2017-08-08T09:01:04.785Z,1010.04
2017-08-08T09:02:13.879Z,1009.98
2017-08-08T09:03:22.938Z,1010.04
2017-08-08T09:04:31.984Z,1010.04
2017-08-08T09:05:41.030Z,1010.11
2017-08-08T09:06:50.045Z,1010.17
2017-08-08T09:07:59.012Z,1010.09
2017-08-08T09:09:07.974Z,1010.05
2017-08-08T09:10:16.939Z,1010.02
2017-08-08T09:11:25.902Z,1009.9
2017-08-08T09:12:35.186Z,1009.9
2017-08-08T09:13:44.141Z,1009.84
2017-08-08T09:14:53.093Z,1009.86
2017-08-08T09:16:02.052Z,1009.87
2017-08-08T09:17:11.013Z,1009.92
2017-08-08T09:18:20.291Z,1009.9
2017-08-08T09:19:29.827Z,1009.88
2017-08-08T09:20:39.364Z,1009.86
2017-08-08T09:21:48.357Z,1009.85
2017-08-08T09:22:57.429Z,1009.82
2017-08-08T09:24:06.808Z,1009.8
2017-08-08T09:25:15.762Z,1009.85
2017-08-08T09:26:24.754Z,1009.79
2017-08-08T09:27:33.733Z,1009.78
2017-08-08T09:28:42.703Z,1009.85
2017-08-08T09:29:51.665Z,1009.74
2017-08-08T09:31:00.625Z,1009.76
2017-08-08T09:32:09.708Z,1009.82
2017-08-08T09:33:18.668Z,1009.78
2017-08-08T09:34:27.662Z,1009.73
2017-08-08T09:35:36.702Z,1009.75
2017-08-08T09:36:45.681Z,1009.72
2017-08-08T09:37:54.705Z,1009.74
2017-08-08T09:39:03.744Z,1009.74
2017-08-08T09:40:12.780Z,1009.71
2017-08-08T09:41:21.732Z,1009.7
2017-08-08T09:42:30.780Z,1009.71
2017-08-08T09:43:39.743Z,1009.67
2017-08-08T09:44:48.718Z,1009.67
2017-08-08T09:45:57.772Z,1009.66
2017-08-08T09:47:07.291Z,1009.65
2017-08-08T09:48:16.337Z,1009.58
2017-08-08T09:49:25.332Z,1009.51
2017-08-08T09:50:34.312Z,1009.63
2017-08-08T09:51:43.367Z,1009.54
2017-08-08T09:52:52.658Z,1009.57
2017-08-08T09:54:01.766Z,1009.5
2017-08-08T09:55:10.776Z,1009.43
2017-08-08T09:56:19.739Z,1009.47
2017-08-08T09:57:28.696Z,1009.35
2017-08-08T09:58:37.663Z,1009.37
2017-08-08T09:59:46.628Z,1009.42
2017-08-08T10:00:55.587Z,1009.37
2017-08-08T10:02:04.552Z,1009.41
2017-08-08T10:03:13.598Z,1009.32
2017-08-08T10:04:22.558Z,1009.24
2017-08-08T10:05:31.526Z,1009.17
2017-08-08T10:06:40.646Z,1009.14
2017-08-08T10:07:49.605Z,1009.19
2017-08-08T10:08:58.571Z,1009.11
2017-08-08T10:10:07.539Z,1009.08
2017-08-08T10:11:16.529Z,1009.16
2017-08-08T10:12:25.490Z,1009.07
2017-08-08T10:13:34.775Z,1009.04
2017-08-08T10:14:43.732Z,1009.04
2017-08-08T10:15:52.698Z,1009.01
2017-08-08T10:17:01.659Z,1008.99
2017-08-08T10:18:10.616Z,1009.02
2017-08-08T10:19:19.596Z,1008.97
2017-08-08T10:20:28.565Z,1008.93
2017-08-08T10:21:37.536Z,1009.1
2017-08-08T10:22:46.495Z,1008.93
2017-08-08T10:23:55.459Z,1008.95
2017-08-08T10:25:04.742Z,1008.93
2017-08-08T10:26:13.706Z,1008.84
2017-08-08T10:27:22.665Z,1008.79
2017-08-08T10:28:31.955Z,1008.87
2017-08-08T10:29:40.914Z,1008.82
2017-08-08T10:30:50.200Z,1008.79
2017-08-08T10:31:59.847Z,1008.77
2017-08-08T10:33:10.164Z,1008.75
2017-08-08T10:34:20.149Z,1008.71
2017-08-08T10:35:31.549Z,1008.65
2017-08-08T10:36:44.886Z,1008.68
2017-08-08T10:37:58.624Z,1008.69
2017-08-08T10:39:11.572Z,1008.61
2017-08-08T10:40:25.389Z,1008.58
2017-08-08T10:41:37.983Z,1008.53
2017-08-08T10:42:50.757Z,1008.53
2017-08-08T10:44:02.853Z,1008.53
2017-08-08T10:45:15.025Z,1008.51
2017-08-08T10:46:28.100Z,1008.5
2017-08-08T10:47:41.155Z,1008.41
2017-08-08T10:48:54.166Z,1008.46
2017-08-08T10:50:07.872Z,1008.4
2017-08-08T10:51:20.791Z,1008.38
2017-08-08T10:52:33.544Z,1008.34
2017-08-08T10:53:45.606Z,1008.27
2017-08-08T10:54:58.600Z,1008.31
2017-08-08T10:56:11.660Z,1008.34
2017-08-08T10:57:24.585Z,1008.35
2017-08-08T10:58:35.333Z,1008.29
2017-08-08T10:59:47.627Z,1008.32
2017-08-08T11:01:00.467Z,1008.36
2017-08-08T11:02:12.945Z,1008.37
2017-08-08T11:03:24.718Z,1008.36
2017-08-08T11:04:37.803Z,1008.36
2017-08-08T11:05:50.206Z,1008.4
2017-08-08T11:07:02.413Z,1008.4
2017-08-08T11:08:14.480Z,1008.39
2017-08-08T11:09:26.530Z,1008.32
2017-08-08T11:10:39.198Z,1008.35
2017-08-08T11:11:50.492Z,1008.3
2017-08-08T11:13:01.862Z,1008.33
2017-08-08T11:14:15.422Z,1008.2
2017-08-08T11:15:27.989Z,1008.26
2017-08-08T11:16:40.724Z,1008.25
2017-08-08T11:17:53.668Z,1008.38
2017-08-08T11:19:05.902Z,1008.26
2017-08-08T11:20:17.103Z,1008.33
2017-08-08T11:21:29.766Z,1008.26
2017-08-08T11:22:41.875Z,1008.28
2017-08-08T11:23:55.194Z,1008.23
2017-08-08T11:25:08.695Z,1008.3
2017-08-08T11:26:21.765Z,1008.35
2017-08-08T11:27:34.774Z,1008.33
2017-08-08T11:28:45.793Z,1008.42
2017-08-08T11:29:57.154Z,1008.46
2017-08-08T11:31:10.316Z,1008.45
2017-08-08T11:32:21.891Z,1008.49
2017-08-08T11:33:35.203Z,1008.49
2017-08-08T11:34:47.173Z,1008.5
2017-08-08T11:36:00.330Z,1008.5
2017-08-08T11:37:12.487Z,1008.48
2017-08-08T11:38:25.793Z,1008.48
2017-08-08T11:39:38.627Z,1008.44
2017-08-08T11:40:51.570Z,1008.42
2017-08-08T11:42:05.015Z,1008.39
2017-08-08T11:43:17.539Z,1008.36
2017-08-08T11:44:30.233Z,1008.39
2017-08-08T11:45:42.017Z,1008.33
2017-08-08T11:46:51.597Z,1008.33
2017-08-08T11:48:01.068Z,1008.27
2017-08-08T11:49:10.618Z,1008.21
2017-08-08T11:50:20.244Z,1008.18
2017-08-08T11:51:30.066Z,1008.28
2017-08-08T11:52:39.970Z,1008.24
2017-08-08T11:53:49.651Z,1008.12
2017-08-08T11:54:59.946Z,1008.12
2017-08-08T11:56:09.948Z,1008.11
2017-08-08T11:57:19.668Z,1008.23
2017-08-08T11:58:28.926Z,1008.17
2017-08-08T11:59:38.500Z,1008.24
2017-08-08T12:00:47.994Z,1008.33
2017-08-08T12:01:57.470Z,1008.23
2017-08-08T12:03:07.014Z,1008.22
2017-08-08T12:04:16.592Z,1008.26
2017-08-08T12:05:26.272Z,1008.27
2017-08-08T12:06:35.789Z,1008.26
2017-08-08T12:07:45.541Z,1008.33
2017-08-08T12:08:58.789Z,1008.32
2017-08-08T12:10:08.033Z,1008.42
2017-08-08T12:11:17.787Z,1008.31
2017-08-08T12:12:27.098Z,1008.35
2017-08-08T12:13:36.082Z,1008.56
2017-08-08T12:14:45.090Z,1008.41
2017-08-08T12:15:54.078Z,1008.37
2017-08-08T12:17:03.056Z,1008.33
2017-08-08T12:18:12.033Z,1008.38
2017-08-08T12:19:21.022Z,1008.29
2017-08-08T12:20:30.035Z,1008.23
2017-08-08T12:21:39.025Z,1008.23
2017-08-08T12:22:48.008Z,1008.21
2017-08-08T12:23:57.007Z,1008.15
2017-08-08T12:25:06.003Z,1008.16
2017-08-08T12:26:14.995Z,1008.14
2017-08-08T12:27:23.985Z,1008.26
2017-08-08T12:28:32.971Z,1008.16
2017-08-08T12:29:41.969Z,1008.12
2017-08-08T12:30:50.961Z,1008.11
2017-08-08T12:31:59.944Z,1008.1
2017-08-08T12:33:08.940Z,1008.13
2017-08-08T12:34:17.917Z,1008.12
2017-08-08T12:35:26.902Z,1008.11
2017-08-08T12:36:35.891Z,1008.1
2017-08-08T12:37:44.873Z,1008.06
2017-08-08T12:38:53.870Z,1008.19
2017-08-08T12:40:02.859Z,1008.1
2017-08-08T12:41:11.845Z,1008.06
2017-08-08T12:42:20.828Z,1008.08
2017-08-08T12:43:29.816Z,1008.1
2017-08-08T12:44:38.797Z,1008.08
2017-08-08T12:45:47.775Z,1008.05
2017-08-08T12:46:56.759Z,1007.93
2017-08-08T12:48:05.763Z,1007.91
2017-08-08T12:49:14.752Z,1008.08
2017-08-08T12:50:23.740Z,1007.92
2017-08-08T12:51:32.718Z,1007.87
2017-08-08T12:52:41.697Z,1007.94
2017-08-08T12:53:50.692Z,1007.98
2017-08-08T12:54:59.716Z,1007.91
2017-08-08T12:56:08.702Z,1007.89
2017-08-08T12:57:17.696Z,1007.84
2017-08-08T12:58:26.688Z,1007.87
2017-08-08T12:59:35.668Z,1007.9
2017-08-08T13:00:44.646Z,1007.89
2017-08-08T13:01:53.638Z,1007.89
2017-08-08T13:03:02.627Z,1007.84
2017-08-08T13:04:11.606Z,1007.92
2017-08-08T13:05:20.607Z,1007.87
2017-08-08T13:06:29.592Z,1007.74
2017-08-08T13:07:38.575Z,1007.79
2017-08-08T13:08:47.562Z,1007.74
2017-08-08T13:09:56.547Z,1007.73
2017-08-08T13:11:05.539Z,1007.74
2017-08-08T13:12:14.521Z,1007.72
2017-08-08T13:13:23.520Z,1007.74
2017-08-08T13:14:32.517Z,1007.75
2017-08-08T13:15:41.507Z,1007.82
2017-08-08T13:16:50.493Z,1007.8
2017-08-08T13:17:59.483Z,1007.77
2017-08-08T13:19:08.468Z,1007.76
2017-08-08T13:20:17.452Z,1007.73
2017-08-08T13:21:26.449Z,1007.71
2017-08-08T13:22:35.444Z,1007.63
2017-08-08T13:23:44.436Z,1007.57
2017-08-08T13:24:53.426Z,1007.49
2017-08-08T13:26:02.412Z,1007.49
2017-08-08T13:27:11.399Z,1007.46
2017-08-08T13:28:20.389Z,1007.41
2017-08-08T13:29:29.373Z,1007.49
2017-08-08T13:30:38.361Z,1007.43
2017-08-08T13:31:47.343Z,1007.51
2017-08-08T13:32:56.331Z,1007.53
2017-08-08T13:34:05.319Z,1007.44
2017-08-08T13:35:14.314Z,1007.44
2017-08-08T13:36:23.618Z,1007.49
2017-08-08T13:37:32.610Z,1007.52
2017-08-08T13:38:41.590Z,1007.49
2017-08-08T13:39:50.714Z,1007.46
2017-08-08T13:40:59.793Z,1007.47
2017-08-08T13:42:08.755Z,1007.49
2017-08-08T13:43:17.729Z,1007.51
2017-08-08T13:44:26.690Z,1007.51
2017-08-08T13:45:35.658Z,1007.43
2017-08-08T13:46:44.662Z,1007.42
2017-08-08T13:47:53.628Z,1007.38
2017-08-08T13:49:02.621Z,1007.43
2017-08-08T13:50:11.657Z,1007.36
2017-08-08T13:51:20.976Z,1007.38
2017-08-08T13:52:30.060Z,1007.29
2017-08-08T13:53:39.031Z,1007.35
2017-08-08T13:54:48.351Z,1007.27
2017-08-08T13:55:57.448Z,1007.27
2017-08-08T13:57:06.471Z,1007.26
2017-08-08T13:58:15.633Z,1007.24
2017-08-08T13:59:25.085Z,1007.28
2017-08-08T14:00:34.165Z,1007.22